Hastings Natural History Reservation, California Weather observations

Data are for 10 minute period ending at time listed.
 Day   Time   Solar   Ave.   Ave.  Ave.  Vector  Max.   Baro.   Total    
  of    of     Rad.   Air    Rel.  Wind   Wind   Wind  Press.  Precip.   
Year   Day            Temp.  Hum.  Speed  Dir.   Gust                    
2016   (PST)  Kw/m2    F      %     mph   deg.    mph    mb.     in.     
-------------------------------------------------------------------------
 208    8:00   0.41   84.1    18    0.9   214     1.9   950.3    0.00 
 208    8:10   0.43   86.1    17    1.6   225     3.5   950.3    0.00 
 208    8:20   0.47   86.9    16    2.5   231     4.7   950.4    0.00 
 208    8:30   0.49   88.3    16    1.3   275     3.9   950.5    0.00 
 208    8:40   0.52   91.6    12    1.8   351     4.5   950.7    0.00 
 208    8:50   0.55   93.1    13    1.4   303     5.8   950.7    0.00 
 208    9:00   0.57   93.5    12    1.9   292     5.1   950.8    0.00 
 208    9:10   0.60   93.6    13    2.5   268     5.4   950.8    0.00 
 208    9:20   0.62   93.6    13    3.4   261    10.1   950.9    0.00 
 208    9:30   0.64   91.1    12    3.0   248    10.4   951.1    0.00 
 208    9:40   0.66   85.7    15    4.6   249     9.0   951.3    0.00 
 208    9:50   0.69   84.5    16    4.7   238    10.3   951.3    0.00 
 208   10:00   0.71   85.7    15    3.4   247    10.2   951.3    0.00 
 208   10:10   0.72   85.9    15    3.6   273     7.5   951.3    0.00 
 208   10:20   0.74   88.4    14    2.5     6     7.4   951.3    0.00 
 208   10:30   0.76   89.2    14    1.9   348     7.8   951.3    0.00 
 208   10:40   0.77   88.9    15    2.3   285     6.2   951.3    0.00 
 208   10:50   0.75   88.8    15    4.6   247     8.3   951.2    0.00 
 208   11:00   0.80   89.2    15    3.5   244     8.6   951.3    0.00 
 208   11:10   0.81   90.1    15    3.4   270     9.5   951.2    0.00 
 208   11:20   0.81   89.6    16    4.8   243     8.5   951.2    0.00 
 208   11:30   0.82   89.7    15    4.6   249     9.2   951.2    0.00 
 208   11:40   0.83   90.1    15    4.3   248    10.7   951.1    0.00 
 208   11:50   0.83   90.6    15    5.4   241    11.2   951.1    0.00 
 208   12:00   0.81   91.6    12    4.5   246    11.0   951.0    0.00 
 208   12:10   0.80   92.5    12    2.7   293     9.7   951.0    0.00 
 208   12:20   0.79   91.5    12    5.0   248    11.6   950.9    0.00 
 208   12:30   0.80   92.1    14    4.3   247     9.6   950.9    0.00 
 208   12:40   0.81   92.7    14    3.1   256     9.1   950.8    0.00 
 208   12:50   0.81   93.5    13    2.6   260     9.5   950.8    0.00 
 208   13:00   0.80   95.0    13    1.7   357     5.3   950.8    0.00 
 208   13:10   0.77   93.6    14    4.8   251    11.8   950.7    0.00 
 208   13:20   0.76   92.6    14    4.5   252     9.7   950.7    0.00 
 208   13:30   0.76   93.6    14    2.9   283    10.9   950.7    0.00 
 208   13:40   0.76   93.5    13    4.8   251    10.7   950.6    0.00 
 208   13:50   0.73   94.0    13    2.7   280     8.8   950.6    0.00 
 208   14:00   0.71   93.8    13    1.5   293     6.4   950.5    0.00 
 208   14:10   0.70   94.6    14    2.5   284     8.6   950.4    0.00 
 208   14:20   0.67   92.6    15    3.9   255     7.3   950.4    0.00 
 208   14:30   0.66   92.1    15    3.2   265     8.7   950.3    0.00 
 208   14:40   0.64   92.8    15    2.7   258     8.3   950.2    0.00 
 208   14:50   0.62   93.6    14    2.6   305     8.0   950.2    0.00 
 208   15:00   0.60   93.5    14    3.0   341    10.7   950.2    0.00 
 208   15:10   0.57   94.1    13    1.6   348     6.1   950.2    0.00 
 208   15:20   0.55   93.8    13    1.6   299     4.7   950.1    0.00 
 208   15:30   0.52   92.9    13    2.2   249     7.3   950.0    0.00 
 208   15:40   0.50   92.7    13    2.0   335     6.0   949.9    0.00 
 208   15:50   0.47   92.5    12    2.5   245     6.3   949.9    0.00 
 208   16:00   0.45   92.8    12    1.9   287     5.0   949.8    0.00 
 208   16:10   0.41   92.4    11    1.9   254     6.1   949.8    0.00 
 208   16:20   0.38   92.1    12    1.8   278     6.2   949.8    0.00 
 208   16:30   0.31   91.1    12    2.9   254     7.2   949.8    0.00 
 208   16:40   0.29   90.2    13    2.0   255     6.9   949.9    0.00 
 208   16:50   0.25   89.7    13    2.8   247     6.3   949.9    0.00 
 208   17:00   0.23   88.4    13    4.0   237     6.9   949.9    0.00 
 208   17:10   0.19   87.5    12    3.1   243     6.4   949.9    0.00 
 208   17:20   0.16   87.6    12    1.5   235     4.8   949.9    0.00 
 208   17:30   0.16   87.4    13    1.6   239     3.7   949.9    0.00 
 208   17:40   0.14   87.6    13    0.7   263     3.0   949.9    0.00 
 208   17:50   0.11   87.1    13    1.2   244     3.9   949.9    0.00 
 208   18:00   0.07   86.3    14    0.8   253     1.9   949.8    0.00 
 208   18:10   0.07   85.7    13    0.8   236     2.2   949.8    0.00 
 208   18:20   0.06   84.8    13    0.9   226     2.1   949.8    0.00 
 208   18:30   0.05   84.2    13    1.1   239     3.6   949.9    0.00 
 208   18:40   0.04   83.3    14    0.2    22     1.3   949.9    0.00 
 208   18:50   0.03   82.1    16    0.0    20     0.6   949.8    0.00 
 208   19:00   0.01   79.9    19    1.0    57     1.8   949.7    0.00 
 208   19:10   0.00   77.8    21    1.5    48     2.0   949.6    0.00 
 208   19:20   0.00   76.2    21    1.6    47     2.3   949.6    0.00 
 208   19:30   0.00   74.9    22    1.8    50     2.6   949.5    0.00 
 208   19:40   0.00   74.0    22    0.4    46     1.2   949.5    0.00 
 208   19:50   0.00   73.1    22    0.6    55     1.3   949.5    0.00 
 208   20:00   0.00   72.2    24    0.4    59     1.5   949.7    0.00 
 208   20:10   0.00   71.3    26    0.7    49     1.6   949.7    0.00 
 208   20:20   0.00   70.8    26    0.1    71     0.7   949.7    0.00 
 208   20:30   0.00   70.3    27    0.4    47     1.3   949.7    0.00 
 208   20:40   0.00   69.8    27    0.3    48     1.1   949.8    0.00 
 208   20:50   0.00   69.3    28    0.8    52     1.8   949.9    0.00 
 208   21:00   0.00   68.8    28    0.5    54     1.5   950.0    0.00 
 208   21:10   0.00   68.4    29    0.1    74     1.5   950.1    0.00 
 208   21:20   0.00   68.1    29    0.3    96     1.7   950.1    0.00 
 208   21:30   0.00   67.8    30    0.1    41     1.2   950.2    0.00 
 208   21:40   0.00   67.3    30    0.0     0     0.0   950.2    0.00 
 208   21:50   0.00   67.0    31    0.1    42     0.9   950.2    0.00 
 208   22:00   0.00   66.7    32    0.2    66     0.9   950.2    0.00 
 208   22:10   0.00   66.6    32    0.2    65     0.9   950.2    0.00 
 208   22:20   0.00   66.3    32    0.1    50     0.7   950.2    0.00 
 208   22:30   0.00   66.1    33    0.2    51     1.0   950.2    0.00 
 208   22:40   0.00   66.0    33    0.0    35     0.9   950.2    0.00 
 208   22:50   0.00   65.8    33    0.1   246     0.9   950.2    0.00 
 208   23:00   0.00   65.7    34    0.6   229     2.3   950.2    0.00 
 208   23:10   0.00   65.6    34    0.6   231     1.9   950.1    0.00 
 208   23:20   0.00   65.7    34    0.7   249     3.0   950.0    0.00 
 208   23:30   0.00   65.6    34    0.3   248     1.2   950.1    0.00 
 208   23:40   0.00   65.9    34    0.4    49     1.5   950.1    0.00 
 208   23:50   0.00   66.1    35    0.0     0     0.0   950.1    0.00 
 209    0:00   0.00   66.1    35    0.6    63     1.8   950.2    0.00 
 209    0:10   0.00   65.9    35    0.2    57     1.2   950.2    0.00 
 209    0:20   0.00   65.7    35    0.3    56     1.3   950.2    0.00 
 209    0:30   0.00   65.5    35    0.1    41     0.7   950.2    0.00 
 209    0:40   0.00   65.2    34    0.0    43     0.5   950.1    0.00 
 209    0:50   0.00   65.2    35    0.1    41     0.7   950.1    0.00 
 209    1:00   0.00   65.1    35    0.0     0     0.0   950.1    0.00 
 209    1:10   0.00   64.9    34    0.1    61     1.1   950.0    0.00 
 209    1:20   0.00   64.9    35    0.3    54     0.9   950.0    0.00 
 209    1:30   0.00   64.8    35    0.1    34     1.2   950.0    0.00 
 209    1:40   0.00   64.7    34    0.2    65     1.2   950.0    0.00 
 209    1:50   0.00   64.8    34    0.0    49     1.2   949.9    0.00 
 209    2:00   0.00   64.5    35    0.2    53     1.2   949.9    0.00 
 209    2:10   0.00   64.5    35    0.1    57     0.8   949.9    0.00 
 209    2:20   0.00   64.6    35    0.1   227     0.9   949.8    0.00 
 209    2:30   0.00   64.3    35    0.1    36     0.8   949.9    0.00 
 209    2:40   0.00   64.3    36    0.0   337     0.5   949.9    0.00 
 209    2:50   0.00   64.3    36    0.1   188     1.5   949.9    0.00 
 209    3:00   0.00   64.2    36    0.1   233     1.1   949.8    0.00 
 209    3:10   0.00   64.0    36    0.0   239     0.7   949.7    0.00 
 209    3:20   0.00   64.1    36    0.4    40     1.6   949.7    0.00 
 209    3:30   0.00   64.2    37    0.2    64     1.8   949.7    0.00 
 209    3:40   0.00   64.2    37    0.1    35     1.0   949.7    0.00 
 209    3:50   0.00   64.2    38    0.6    66     1.6   949.7    0.00 
 209    4:00   0.00   64.2    38    0.1    88     0.8   949.8    0.00 
 209    4:10   0.00   64.1    38    0.5    67     1.8   949.7    0.00 
 209    4:20   0.00   64.1    39    0.4    57     1.7   949.8    0.00 
 209    4:30   0.00   64.1    39    0.3    59     1.2   949.8    0.00 
 209    4:40   0.00   64.1    39    0.8    54     1.9   949.9    0.00 
 209    4:50   0.00   64.1    40    0.4    59     1.5   950.0    0.00 
 209    5:00   0.00   64.2    40    0.6    55     1.7   950.0    0.00 
 209    5:10   0.00   64.0    40    0.5    59     1.6   950.1    0.00 
 209    5:20   0.00   63.9    40    0.6    59     1.6   950.1    0.00 
 209    5:30   0.00   64.2    40    0.7    66     2.0   950.2    0.00 
 209    5:40   0.01   64.5    40    1.0    63     1.7   950.3    0.00 
 209    5:50   0.01   64.8    41    0.7    53     1.8   950.4    0.00 
 209    6:00   0.01   65.1    41    0.9    52     1.8   950.4    0.00 
 209    6:10   0.02   65.4    42    0.4    52     1.5   950.4    0.00 
 209    6:20   0.03   65.8    42    0.5    60     1.8   950.4    0.00 
 209    6:30   0.03   66.4    42    0.3    65     1.3   950.4    0.00 
 209    6:40   0.03   67.9    41    0.0    77     0.7   950.4    0.00 
 209    6:50   0.04   69.6    39    0.2    51     1.2   950.4    0.00 
 209    7:00   0.20   71.7    38    0.2   220     0.9   950.2    0.00 
 209    7:10   0.23   75.6    34    0.3   243     1.4   950.2    0.00 
 209    7:20   0.27   79.6    31    0.1   220     0.7   950.1    0.00 
 209    7:30   0.30   83.3    28    0.2    98     1.4   950.0    0.00 
 209    7:40   0.33   85.5    27    0.1    94     1.1   950.0    0.00 
 209    7:50   0.36   88.8    24    0.0    90     0.5   950.2    0.00 

Return to Hastings Natural History Reservation graphs page.


Western Regional Climate Center,wrcc@dri.edu